sensor_id;sensor_type;location;lat;lon;timestamp;temperature;humidity
30999;DHT22;20549;50.042;8.968;2022-11-20T00:00:30;5.80;99.90
30999;DHT22;20549;50.042;8.968;2022-11-20T00:02:57;5.80;99.90
30999;DHT22;20549;50.042;8.968;2022-11-20T00:05:23;5.80;99.90
30999;DHT22;20549;50.042;8.968;2022-11-20T00:07:50;5.80;99.90
30999;DHT22;20549;50.042;8.968;2022-11-20T00:10:17;5.90;99.90
30999;DHT22;20549;50.042;8.968;2022-11-20T00:12:43;5.80;99.90
30999;DHT22;20549;50.042;8.968;2022-11-20T00:15:10;5.80;99.90
30999;DHT22;20549;50.042;8.968;2022-11-20T00:17:36;5.90;99.90
30999;DHT22;20549;50.042;8.968;2022-11-20T00:20:03;5.90;99.90
30999;DHT22;20549;50.042;8.968;2022-11-20T00:22:30;5.90;99.90
30999;DHT22;20549;50.042;8.968;2022-11-20T00:24:56;5.80;99.90
30999;DHT22;20549;50.042;8.968;2022-11-20T00:27:23;5.90;99.90
30999;DHT22;20549;50.042;8.968;2022-11-20T00:29:49;5.90;99.90
30999;DHT22;20549;50.042;8.968;2022-11-20T00:32:16;5.90;99.90
30999;DHT22;20549;50.042;8.968;2022-11-20T00:34:43;5.90;99.90
30999;DHT22;20549;50.042;8.968;2022-11-20T00:37:09;5.90;99.90
30999;DHT22;20549;50.042;8.968;2022-11-20T00:39:36;5.90;99.90
30999;DHT22;20549;50.042;8.968;2022-11-20T00:42:02;5.90;99.90
30999;DHT22;20549;50.042;8.968;2022-11-20T00:44:29;5.90;99.90
30999;DHT22;20549;50.042;8.968;2022-11-20T00:46:56;5.90;99.90
30999;DHT22;20549;50.042;8.968;2022-11-20T00:49:22;5.90;99.90
30999;DHT22;20549;50.042;8.968;2022-11-20T00:51:49;6.00;99.90
30999;DHT22;20549;50.042;8.968;2022-11-20T00:54:15;6.00;99.90
30999;DHT22;20549;50.042;8.968;2022-11-20T00:56:42;6.00;99.90
30999;DHT22;20549;50.042;8.968;2022-11-20T00:59:09;6.00;99.90
30999;DHT22;20549;50.042;8.968;2022-11-20T01:01:35;6.00;99.90
30999;DHT22;20549;50.042;8.968;2022-11-20T01:04:02;6.00;99.90
30999;DHT22;20549;50.042;8.968;2022-11-20T01:06:29;6.00;99.90
30999;DHT22;20549;50.042;8.968;2022-11-20T01:08:56;6.00;99.90
30999;DHT22;20549;50.042;8.968;2022-11-20T01:11:22;6.00;99.90
30999;DHT22;20549;50.042;8.968;2022-11-20T01:13:49;6.00;99.90
30999;DHT22;20549;50.042;8.968;2022-11-20T01:16:19;6.00;99.90
30999;DHT22;20549;50.042;8.968;2022-11-20T01:18:45;6.10;99.90
30999;DHT22;20549;50.042;8.968;2022-11-20T01:21:11;6.00;99.90
30999;DHT22;20549;50.042;8.968;2022-11-20T01:23:38;6.00;99.90
30999;DHT22;20549;50.042;8.968;2022-11-20T01:26:04;6.00;99.90
30999;DHT22;20549;50.042;8.968;2022-11-20T01:28:30;6.00;99.90
30999;DHT22;20549;50.042;8.968;2022-11-20T01:30:57;6.00;99.90
30999;DHT22;20549;50.042;8.968;2022-11-20T01:33:24;6.00;99.90
30999;DHT22;20549;50.042;8.968;2022-11-20T01:35:50;6.00;99.90
30999;DHT22;20549;50.042;8.968;2022-11-20T01:38:17;6.00;99.90
30999;DHT22;20549;50.042;8.968;2022-11-20T01:40:43;5.90;99.90
30999;DHT22;20549;50.042;8.968;2022-11-20T01:43:19;5.90;99.90
30999;DHT22;20549;50.042;8.968;2022-11-20T01:48:17;5.90;99.90
30999;DHT22;20549;50.042;8.968;2022-11-20T01:50:44;6.00;99.90
30999;DHT22;20549;50.042;8.968;2022-11-20T01:53:11;6.00;99.90
30999;DHT22;20549;50.042;8.968;2022-11-20T01:55:41;6.00;99.90
30999;DHT22;20549;50.042;8.968;2022-11-20T01:58:04;6.00;99.90
30999;DHT22;20549;50.042;8.968;2022-11-20T02:00:30;6.00;99.90
30999;DHT22;20549;50.042;8.968;2022-11-20T02:02:57;6.00;99.90
30999;DHT22;20549;50.042;8.968;2022-11-20T02:05:36;6.10;99.90
30999;DHT22;20549;50.042;8.968;2022-11-20T02:08:02;6.00;99.90
30999;DHT22;20549;50.042;8.968;2022-11-20T02:10:28;6.10;99.90
30999;DHT22;20549;50.042;8.968;2022-11-20T02:12:55;6.10;99.90
30999;DHT22;20549;50.042;8.968;2022-11-20T02:15:39;6.10;99.90
30999;DHT22;20549;50.042;8.968;2022-11-20T02:18:06;6.10;99.90
30999;DHT22;20549;50.042;8.968;2022-11-20T02:20:33;6.10;99.90
30999;DHT22;20549;50.042;8.968;2022-11-20T02:23:20;6.10;99.90
30999;DHT22;20549;50.042;8.968;2022-11-20T02:25:44;6.10;99.90
30999;DHT22;20549;50.042;8.968;2022-11-20T02:28:10;6.10;99.90
30999;DHT22;20549;50.042;8.968;2022-11-20T02:30:37;6.10;99.90
30999;DHT22;20549;50.042;8.968;2022-11-20T02:33:04;6.10;99.90
30999;DHT22;20549;50.042;8.968;2022-11-20T02:37:58;6.10;99.90
30999;DHT22;20549;50.042;8.968;2022-11-20T02:40:23;6.10;99.90
30999;DHT22;20549;50.042;8.968;2022-11-20T02:42:53;6.10;99.90
30999;DHT22;20549;50.042;8.968;2022-11-20T02:45:19;6.10;99.90
30999;DHT22;20549;50.042;8.968;2022-11-20T02:47:46;6.10;99.90
30999;DHT22;20549;50.042;8.968;2022-11-20T02:50:13;6.10;99.90
30999;DHT22;20549;50.042;8.968;2022-11-20T02:52:39;6.10;99.90
30999;DHT22;20549;50.042;8.968;2022-11-20T02:55:06;6.20;99.90
30999;DHT22;20549;50.042;8.968;2022-11-20T02:57:33;6.20;99.90
30999;DHT22;20549;50.042;8.968;2022-11-20T02:59:59;6.20;99.90
30999;DHT22;20549;50.042;8.968;2022-11-20T03:02:29;6.20;99.90
30999;DHT22;20549;50.042;8.968;2022-11-20T03:04:52;6.10;99.90
30999;DHT22;20549;50.042;8.968;2022-11-20T03:07:19;6.10;99.90
30999;DHT22;20549;50.042;8.968;2022-11-20T03:09:45;6.10;99.90
30999;DHT22;20549;50.042;8.968;2022-11-20T03:12:12;6.10;99.90
30999;DHT22;20549;50.042;8.968;2022-11-20T03:14:39;6.10;99.90
30999;DHT22;20549;50.042;8.968;2022-11-20T03:17:05;6.10;99.90
30999;DHT22;20549;50.042;8.968;2022-11-20T03:19:32;6.10;99.90
30999;DHT22;20549;50.042;8.968;2022-11-20T03:21:58;6.10;99.90
30999;DHT22;20549;50.042;8.968;2022-11-20T03:24:25;6.10;99.90
30999;DHT22;20549;50.042;8.968;2022-11-20T03:26:52;6.10;99.90
30999;DHT22;20549;50.042;8.968;2022-11-20T03:29:18;6.10;99.90
30999;DHT22;20549;50.042;8.968;2022-11-20T03:31:45;6.10;99.90
30999;DHT22;20549;50.042;8.968;2022-11-20T03:34:11;6.10;99.90
30999;DHT22;20549;50.042;8.968;2022-11-20T03:36:38;6.10;99.90
30999;DHT22;20549;50.042;8.968;2022-11-20T03:39:05;6.10;99.90
30999;DHT22;20549;50.042;8.968;2022-11-20T03:41:35;6.10;99.90
30999;DHT22;20549;50.042;8.968;2022-11-20T03:43:58;6.20;99.90
30999;DHT22;20549;50.042;8.968;2022-11-20T03:46:27;6.20;99.90
30999;DHT22;20549;50.042;8.968;2022-11-20T03:48:54;6.20;99.90
30999;DHT22;20549;50.042;8.968;2022-11-20T03:53:47;6.20;99.90
30999;DHT22;20549;50.042;8.968;2022-11-20T03:56:14;6.20;99.90
30999;DHT22;20549;50.042;8.968;2022-11-20T03:58:40;6.20;99.90
30999;DHT22;20549;50.042;8.968;2022-11-20T04:01:07;6.20;99.90
30999;DHT22;20549;50.042;8.968;2022-11-20T04:03:33;6.20;99.90
30999;DHT22;20549;50.042;8.968;2022-11-20T04:06:04;6.20;99.90
30999;DHT22;20549;50.042;8.968;2022-11-20T04:08:30;6.20;99.90
30999;DHT22;20549;50.042;8.968;2022-11-20T04:10:56;6.20;99.90
30999;DHT22;20549;50.042;8.968;2022-11-20T04:13:22;6.20;99.90
30999;DHT22;20549;50.042;8.968;2022-11-20T04:15:49;6.30;99.90
30999;DHT22;20549;50.042;8.968;2022-11-20T04:18:15;6.30;99.90
30999;DHT22;20549;50.042;8.968;2022-11-20T04:20:42;6.30;99.90
30999;DHT22;20549;50.042;8.968;2022-11-20T04:23:09;6.30;99.90
30999;DHT22;20549;50.042;8.968;2022-11-20T04:25:35;6.30;99.90
30999;DHT22;20549;50.042;8.968;2022-11-20T04:28:02;6.30;99.90
30999;DHT22;20549;50.042;8.968;2022-11-20T04:30:28;6.30;99.90
30999;DHT22;20549;50.042;8.968;2022-11-20T04:32:55;6.30;99.90
30999;DHT22;20549;50.042;8.968;2022-11-20T04:35:22;6.30;99.90
30999;DHT22;20549;50.042;8.968;2022-11-20T04:37:50;6.30;99.90
30999;DHT22;20549;50.042;8.968;2022-11-20T04:40:15;6.30;99.90
30999;DHT22;20549;50.042;8.968;2022-11-20T04:42:41;6.30;99.90
30999;DHT22;20549;50.042;8.968;2022-11-20T04:45:08;6.30;99.90
30999;DHT22;20549;50.042;8.968;2022-11-20T04:47:35;6.30;99.90
30999;DHT22;20549;50.042;8.968;2022-11-20T04:50:01;6.30;99.90
30999;DHT22;20549;50.042;8.968;2022-11-20T04:52:28;6.30;99.90
30999;DHT22;20549;50.042;8.968;2022-11-20T04:54:54;6.30;99.90
30999;DHT22;20549;50.042;8.968;2022-11-20T04:57:21;6.30;99.90
30999;DHT22;20549;50.042;8.968;2022-11-20T04:59:47;6.30;99.90
30999;DHT22;20549;50.042;8.968;2022-11-20T05:02:14;6.30;99.90
30999;DHT22;20549;50.042;8.968;2022-11-20T05:04:41;6.30;99.90
30999;DHT22;20549;50.042;8.968;2022-11-20T05:07:07;6.30;99.90
30999;DHT22;20549;50.042;8.968;2022-11-20T05:09:34;6.30;99.90
30999;DHT22;20549;50.042;8.968;2022-11-20T05:12:00;6.30;99.90
30999;DHT22;20549;50.042;8.968;2022-11-20T05:14:27;6.30;99.90
30999;DHT22;20549;50.042;8.968;2022-11-20T05:16:54;6.30;99.90
30999;DHT22;20549;50.042;8.968;2022-11-20T05:19:20;6.30;99.90
30999;DHT22;20549;50.042;8.968;2022-11-20T05:21:47;6.40;99.90
30999;DHT22;20549;50.042;8.968;2022-11-20T05:24:13;6.40;99.90
30999;DHT22;20549;50.042;8.968;2022-11-20T05:26:40;6.40;99.90
30999;DHT22;20549;50.042;8.968;2022-11-20T05:29:09;6.40;99.90
30999;DHT22;20549;50.042;8.968;2022-11-20T05:31:33;6.40;99.90
30999;DHT22;20549;50.042;8.968;2022-11-20T05:34:00;6.40;99.90
30999;DHT22;20549;50.042;8.968;2022-11-20T05:36:26;6.40;99.90
30999;DHT22;20549;50.042;8.968;2022-11-20T05:38:53;6.40;99.90
30999;DHT22;20549;50.042;8.968;2022-11-20T05:41:20;6.40;99.90
30999;DHT22;20549;50.042;8.968;2022-11-20T05:43:47;6.40;99.90
30999;DHT22;20549;50.042;8.968;2022-11-20T05:46:13;6.40;99.90
30999;DHT22;20549;50.042;8.968;2022-11-20T05:48:40;6.40;99.90
30999;DHT22;20549;50.042;8.968;2022-11-20T05:51:07;6.40;99.90
30999;DHT22;20549;50.042;8.968;2022-11-20T05:53:33;6.40;99.90
30999;DHT22;20549;50.042;8.968;2022-11-20T05:56:06;6.40;99.90
30999;DHT22;20549;50.042;8.968;2022-11-20T05:58:32;6.40;99.90
30999;DHT22;20549;50.042;8.968;2022-11-20T06:01:08;6.40;99.90
30999;DHT22;20549;50.042;8.968;2022-11-20T06:03:34;6.40;99.90
30999;DHT22;20549;50.042;8.968;2022-11-20T06:06:01;6.40;99.90
30999;DHT22;20549;50.042;8.968;2022-11-20T06:08:27;6.40;99.90
30999;DHT22;20549;50.042;8.968;2022-11-20T06:10:54;6.40;99.90
30999;DHT22;20549;50.042;8.968;2022-11-20T06:13:20;6.40;99.90
30999;DHT22;20549;50.042;8.968;2022-11-20T06:15:50;6.50;99.90
30999;DHT22;20549;50.042;8.968;2022-11-20T06:18:16;6.40;99.90
30999;DHT22;20549;50.042;8.968;2022-11-20T06:20:43;6.50;99.90
30999;DHT22;20549;50.042;8.968;2022-11-20T06:23:09;6.50;99.90
30999;DHT22;20549;50.042;8.968;2022-11-20T06:25:42;6.50;99.90
30999;DHT22;20549;50.042;8.968;2022-11-20T06:28:08;6.50;99.90
30999;DHT22;20549;50.042;8.968;2022-11-20T06:30:35;6.50;99.90
30999;DHT22;20549;50.042;8.968;2022-11-20T06:33:01;6.50;99.90
30999;DHT22;20549;50.042;8.968;2022-11-20T06:35:28;6.50;99.90
30999;DHT22;20549;50.042;8.968;2022-11-20T06:37:55;6.50;99.90
30999;DHT22;20549;50.042;8.968;2022-11-20T06:40:21;6.50;99.90
30999;DHT22;20549;50.042;8.968;2022-11-20T06:42:48;6.60;99.90
30999;DHT22;20549;50.042;8.968;2022-11-20T06:45:14;6.60;99.90
30999;DHT22;20549;50.042;8.968;2022-11-20T06:47:41;6.60;99.90
30999;DHT22;20549;50.042;8.968;2022-11-20T06:50:08;6.60;99.90
30999;DHT22;20549;50.042;8.968;2022-11-20T06:52:34;6.60;99.90
30999;DHT22;20549;50.042;8.968;2022-11-20T06:55:01;6.60;99.90
30999;DHT22;20549;50.042;8.968;2022-11-20T06:57:27;6.70;99.90
30999;DHT22;20549;50.042;8.968;2022-11-20T06:59:54;6.70;99.90
30999;DHT22;20549;50.042;8.968;2022-11-20T07:02:20;6.70;99.90
30999;DHT22;20549;50.042;8.968;2022-11-20T07:04:47;6.70;99.90
30999;DHT22;20549;50.042;8.968;2022-11-20T07:07:14;6.70;99.90
30999;DHT22;20549;50.042;8.968;2022-11-20T07:09:40;6.70;99.90
30999;DHT22;20549;50.042;8.968;2022-11-20T07:12:07;6.70;99.90
30999;DHT22;20549;50.042;8.968;2022-11-20T07:14:33;6.70;99.90
30999;DHT22;20549;50.042;8.968;2022-11-20T07:17:00;6.70;99.90
30999;DHT22;20549;50.042;8.968;2022-11-20T07:19:27;6.70;99.90
30999;DHT22;20549;50.042;8.968;2022-11-20T07:21:53;6.70;99.90
30999;DHT22;20549;50.042;8.968;2022-11-20T07:24:20;6.70;99.90
30999;DHT22;20549;50.042;8.968;2022-11-20T07:26:46;6.70;99.90
30999;DHT22;20549;50.042;8.968;2022-11-20T07:29:13;6.70;99.90
30999;DHT22;20549;50.042;8.968;2022-11-20T07:31:40;6.70;99.90
30999;DHT22;20549;50.042;8.968;2022-11-20T07:34:06;6.70;99.90
30999;DHT22;20549;50.042;8.968;2022-11-20T07:36:33;6.60;99.90
30999;DHT22;20549;50.042;8.968;2022-11-20T07:38:59;6.70;99.90
30999;DHT22;20549;50.042;8.968;2022-11-20T07:41:26;6.70;99.90
30999;DHT22;20549;50.042;8.968;2022-11-20T07:43:52;6.70;99.90
30999;DHT22;20549;50.042;8.968;2022-11-20T07:46:19;6.70;99.90
30999;DHT22;20549;50.042;8.968;2022-11-20T07:48:46;6.70;99.90
30999;DHT22;20549;50.042;8.968;2022-11-20T07:51:12;6.70;99.90
30999;DHT22;20549;50.042;8.968;2022-11-20T07:53:39;6.80;99.90
30999;DHT22;20549;50.042;8.968;2022-11-20T07:56:05;6.80;99.90
30999;DHT22;20549;50.042;8.968;2022-11-20T07:58:32;6.80;99.90
30999;DHT22;20549;50.042;8.968;2022-11-20T08:01:05;6.80;99.90
30999;DHT22;20549;50.042;8.968;2022-11-20T08:03:31;6.80;99.90
30999;DHT22;20549;50.042;8.968;2022-11-20T08:06:01;6.80;99.90
30999;DHT22;20549;50.042;8.968;2022-11-20T08:08:27;6.80;99.90
30999;DHT22;20549;50.042;8.968;2022-11-20T08:10:54;6.80;99.90
30999;DHT22;20549;50.042;8.968;2022-11-20T08:13:20;6.80;99.90
30999;DHT22;20549;50.042;8.968;2022-11-20T08:18:41;6.90;99.90
30999;DHT22;20549;50.042;8.968;2022-11-20T08:21:07;6.90;99.90
30999;DHT22;20549;50.042;8.968;2022-11-20T08:23:34;6.90;99.90
30999;DHT22;20549;50.042;8.968;2022-11-20T08:26:01;7.00;99.90
30999;DHT22;20549;50.042;8.968;2022-11-20T08:28:27;7.10;99.90
30999;DHT22;20549;50.042;8.968;2022-11-20T08:30:58;7.20;99.90
30999;DHT22;20549;50.042;8.968;2022-11-20T08:33:20;7.20;99.90
30999;DHT22;20549;50.042;8.968;2022-11-20T08:35:47;7.30;99.90
30999;DHT22;20549;50.042;8.968;2022-11-20T08:38:13;7.30;99.90
30999;DHT22;20549;50.042;8.968;2022-11-20T08:40:40;7.40;99.90
30999;DHT22;20549;50.042;8.968;2022-11-20T08:43:07;7.40;99.90
30999;DHT22;20549;50.042;8.968;2022-11-20T08:45:33;7.50;99.90
30999;DHT22;20549;50.042;8.968;2022-11-20T08:48:00;7.50;99.90
30999;DHT22;20549;50.042;8.968;2022-11-20T08:50:26;7.50;99.90
30999;DHT22;20549;50.042;8.968;2022-11-20T08:52:53;7.60;99.90
30999;DHT22;20549;50.042;8.968;2022-11-20T08:55:20;7.60;99.90
30999;DHT22;20549;50.042;8.968;2022-11-20T08:57:46;7.60;99.90
30999;DHT22;20549;50.042;8.968;2022-11-20T09:00:13;7.70;99.90
30999;DHT22;20549;50.042;8.968;2022-11-20T09:02:40;7.70;99.90
30999;DHT22;20549;50.042;8.968;2022-11-20T09:05:06;7.70;99.90
30999;DHT22;20549;50.042;8.968;2022-11-20T09:07:33;7.70;99.90
30999;DHT22;20549;50.042;8.968;2022-11-20T09:09:59;7.70;99.90
30999;DHT22;20549;50.042;8.968;2022-11-20T09:12:26;7.80;99.90
30999;DHT22;20549;50.042;8.968;2022-11-20T09:14:52;7.80;99.90
30999;DHT22;20549;50.042;8.968;2022-11-20T09:17:19;7.80;99.90
30999;DHT22;20549;50.042;8.968;2022-11-20T09:19:46;7.90;99.90
30999;DHT22;20549;50.042;8.968;2022-11-20T09:22:12;7.90;99.90
30999;DHT22;20549;50.042;8.968;2022-11-20T09:24:39;8.00;99.90
30999;DHT22;20549;50.042;8.968;2022-11-20T09:27:05;8.00;99.90
30999;DHT22;20549;50.042;8.968;2022-11-20T09:29:32;8.10;99.90
30999;DHT22;20549;50.042;8.968;2022-11-20T09:31:59;8.10;99.90
30999;DHT22;20549;50.042;8.968;2022-11-20T09:34:25;8.20;99.90
30999;DHT22;20549;50.042;8.968;2022-11-20T09:36:53;8.20;99.90
30999;DHT22;20549;50.042;8.968;2022-11-20T09:39:19;8.30;99.90
30999;DHT22;20549;50.042;8.968;2022-11-20T09:41:57;8.40;99.90
30999;DHT22;20549;50.042;8.968;2022-11-20T09:44:31;8.50;99.90
30999;DHT22;20549;50.042;8.968;2022-11-20T09:46:55;8.60;99.90
30999;DHT22;20549;50.042;8.968;2022-11-20T09:54:50;8.80;99.90
30999;DHT22;20549;50.042;8.968;2022-11-20T09:57:20;8.80;99.90
30999;DHT22;20549;50.042;8.968;2022-11-20T10:00:22;8.80;99.90
30999;DHT22;20549;50.042;8.968;2022-11-20T10:04:59;8.90;99.90
30999;DHT22;20549;50.042;8.968;2022-11-20T10:07:40;8.90;99.90
30999;DHT22;20549;50.042;8.968;2022-11-20T10:10:04;8.90;99.90
30999;DHT22;20549;50.042;8.968;2022-11-20T10:12:48;9.00;99.90
30999;DHT22;20549;50.042;8.968;2022-11-20T10:17:59;9.10;99.90
30999;DHT22;20549;50.042;8.968;2022-11-20T10:20:27;9.20;99.90
30999;DHT22;20549;50.042;8.968;2022-11-20T10:30:46;9.30;99.90
30999;DHT22;20549;50.042;8.968;2022-11-20T10:33:22;9.40;99.90
30999;DHT22;20549;50.042;8.968;2022-11-20T10:36:14;9.40;99.90
30999;DHT22;20549;50.042;8.968;2022-11-20T10:38:40;9.50;99.90
30999;DHT22;20549;50.042;8.968;2022-11-20T10:41:05;9.50;99.90
30999;DHT22;20549;50.042;8.968;2022-11-20T10:43:52;9.50;99.90
30999;DHT22;20549;50.042;8.968;2022-11-20T10:46:18;9.50;99.90
30999;DHT22;20549;50.042;8.968;2022-11-20T10:48:43;9.60;99.90
30999;DHT22;20549;50.042;8.968;2022-11-20T10:51:18;9.60;99.90
30999;DHT22;20549;50.042;8.968;2022-11-20T10:54:04;9.60;99.90
30999;DHT22;20549;50.042;8.968;2022-11-20T10:56:38;9.60;99.90
30999;DHT22;20549;50.042;8.968;2022-11-20T11:02:14;9.60;99.90
30999;DHT22;20549;50.042;8.968;2022-11-20T11:04:33;9.60;99.90
30999;DHT22;20549;50.042;8.968;2022-11-20T11:07:03;9.60;99.90
30999;DHT22;20549;50.042;8.968;2022-11-20T11:09:32;9.60;99.90
30999;DHT22;20549;50.042;8.968;2022-11-20T11:11:52;9.60;99.90
30999;DHT22;20549;50.042;8.968;2022-11-20T11:14:18;9.70;99.90
30999;DHT22;20549;50.042;8.968;2022-11-20T11:16:57;9.70;99.90
30999;DHT22;20549;50.042;8.968;2022-11-20T11:19:22;9.70;99.90
30999;DHT22;20549;50.042;8.968;2022-11-20T11:21:52;9.80;99.90
30999;DHT22;20549;50.042;8.968;2022-11-20T11:24:25;9.80;99.90
30999;DHT22;20549;50.042;8.968;2022-11-20T11:26:57;9.80;99.90
30999;DHT22;20549;50.042;8.968;2022-11-20T11:29:23;9.80;99.90
30999;DHT22;20549;50.042;8.968;2022-11-20T11:31:50;9.90;99.90
30999;DHT22;20549;50.042;8.968;2022-11-20T11:34:17;9.90;99.90
30999;DHT22;20549;50.042;8.968;2022-11-20T11:36:55;9.90;99.90
30999;DHT22;20549;50.042;8.968;2022-11-20T11:39:19;9.90;99.90
30999;DHT22;20549;50.042;8.968;2022-11-20T11:41:45;10.00;99.90
30999;DHT22;20549;50.042;8.968;2022-11-20T11:44:21;10.00;99.90
30999;DHT22;20549;50.042;8.968;2022-11-20T11:47:09;10.00;99.90
30999;DHT22;20549;50.042;8.968;2022-11-20T11:49:32;10.00;99.90
30999;DHT22;20549;50.042;8.968;2022-11-20T11:54:38;10.00;99.90
30999;DHT22;20549;50.042;8.968;2022-11-20T11:57:05;10.00;99.80
30999;DHT22;20549;50.042;8.968;2022-11-20T12:00:08;10.00;99.60
30999;DHT22;20549;50.042;8.968;2022-11-20T12:02:35;10.00;99.50
30999;DHT22;20549;50.042;8.968;2022-11-20T12:05:13;10.00;99.40
30999;DHT22;20549;50.042;8.968;2022-11-20T12:10:04;9.90;99.90
30999;DHT22;20549;50.042;8.968;2022-11-20T12:12:34;9.90;99.90
30999;DHT22;20549;50.042;8.968;2022-11-20T12:14:57;9.90;99.90
30999;DHT22;20549;50.042;8.968;2022-11-20T12:17:24;9.90;99.90
30999;DHT22;20549;50.042;8.968;2022-11-20T12:19:51;9.90;99.90
30999;DHT22;20549;50.042;8.968;2022-11-20T12:22:41;10.00;99.90
30999;DHT22;20549;50.042;8.968;2022-11-20T12:30:11;10.00;99.90
30999;DHT22;20549;50.042;8.968;2022-11-20T12:35:24;10.00;99.90
30999;DHT22;20549;50.042;8.968;2022-11-20T12:43:04;10.10;99.90
30999;DHT22;20549;50.042;8.968;2022-11-20T12:45:51;10.10;99.90
30999;DHT22;20549;50.042;8.968;2022-11-20T12:56:54;10.10;99.90
30999;DHT22;20549;50.042;8.968;2022-11-20T13:04:55;10.10;99.90
30999;DHT22;20549;50.042;8.968;2022-11-20T13:07:19;10.10;99.90
30999;DHT22;20549;50.042;8.968;2022-11-20T13:09:46;10.10;99.80
30999;DHT22;20549;50.042;8.968;2022-11-20T13:12:22;10.20;99.80
30999;DHT22;20549;50.042;8.968;2022-11-20T13:14:53;10.20;99.70
30999;DHT22;20549;50.042;8.968;2022-11-20T13:19:52;10.20;99.80
30999;DHT22;20549;50.042;8.968;2022-11-20T13:22:49;10.20;99.80
30999;DHT22;20549;50.042;8.968;2022-11-20T13:24:53;10.20;99.60
30999;DHT22;20549;50.042;8.968;2022-11-20T13:27:23;10.20;99.30
30999;DHT22;20549;50.042;8.968;2022-11-20T13:30:00;10.20;99.00
30999;DHT22;20549;50.042;8.968;2022-11-20T13:32:14;10.20;98.80
30999;DHT22;20549;50.042;8.968;2022-11-20T13:34:50;10.20;99.00
30999;DHT22;20549;50.042;8.968;2022-11-20T13:37:23;10.10;99.10
30999;DHT22;20549;50.042;8.968;2022-11-20T13:39:34;10.10;99.30
30999;DHT22;20549;50.042;8.968;2022-11-20T13:42:01;10.10;99.40
30999;DHT22;20549;50.042;8.968;2022-11-20T13:44:38;10.10;99.60
30999;DHT22;20549;50.042;8.968;2022-11-20T13:47:17;10.10;99.60
30999;DHT22;20549;50.042;8.968;2022-11-20T13:49:38;10.10;99.70
30999;DHT22;20549;50.042;8.968;2022-11-20T14:00:30;10.00;99.40
30999;DHT22;20549;50.042;8.968;2022-11-20T14:05:56;9.90;99.60
30999;DHT22;20549;50.042;8.968;2022-11-20T14:08:02;9.90;99.70
30999;DHT22;20549;50.042;8.968;2022-11-20T14:10:28;9.80;99.80
30999;DHT22;20549;50.042;8.968;2022-11-20T14:12:54;9.80;99.90
30999;DHT22;20549;50.042;8.968;2022-11-20T14:15:30;9.80;99.90
30999;DHT22;20549;50.042;8.968;2022-11-20T14:17:56;9.80;99.90
30999;DHT22;20549;50.042;8.968;2022-11-20T14:20:24;9.80;99.90
30999;DHT22;20549;50.042;8.968;2022-11-20T14:22:49;9.70;99.90
30999;DHT22;20549;50.042;8.968;2022-11-20T14:27:43;9.70;99.90
30999;DHT22;20549;50.042;8.968;2022-11-20T14:30:16;9.70;99.90
30999;DHT22;20549;50.042;8.968;2022-11-20T14:32:42;9.70;99.90
30999;DHT22;20549;50.042;8.968;2022-11-20T14:35:09;9.70;99.90
30999;DHT22;20549;50.042;8.968;2022-11-20T14:37:37;9.70;99.90
30999;DHT22;20549;50.042;8.968;2022-11-20T14:40:02;9.60;99.90
30999;DHT22;20549;50.042;8.968;2022-11-20T14:42:28;9.60;99.90
30999;DHT22;20549;50.042;8.968;2022-11-20T14:44:55;9.60;99.90
30999;DHT22;20549;50.042;8.968;2022-11-20T14:47:22;9.60;99.90
30999;DHT22;20549;50.042;8.968;2022-11-20T14:49:48;9.50;99.90
30999;DHT22;20549;50.042;8.968;2022-11-20T14:52:21;9.50;99.90
30999;DHT22;20549;50.042;8.968;2022-11-20T14:54:48;9.50;99.90
30999;DHT22;20549;50.042;8.968;2022-11-20T14:57:27;9.50;99.90
30999;DHT22;20549;50.042;8.968;2022-11-20T15:00:37;9.40;99.90
30999;DHT22;20549;50.042;8.968;2022-11-20T15:02:19;9.40;99.90
30999;DHT22;20549;50.042;8.968;2022-11-20T15:04:49;9.40;99.90
30999;DHT22;20549;50.042;8.968;2022-11-20T15:07:24;9.30;99.90
30999;DHT22;20549;50.042;8.968;2022-11-20T15:10:04;9.30;99.90
30999;DHT22;20549;50.042;8.968;2022-11-20T15:12:29;9.30;99.90
30999;DHT22;20549;50.042;8.968;2022-11-20T15:14:55;9.20;99.90
30999;DHT22;20549;50.042;8.968;2022-11-20T15:17:21;9.20;99.90
30999;DHT22;20549;50.042;8.968;2022-11-20T15:19:48;9.20;99.90
30999;DHT22;20549;50.042;8.968;2022-11-20T15:22:14;9.10;99.90
30999;DHT22;20549;50.042;8.968;2022-11-20T15:24:41;9.10;99.90
30999;DHT22;20549;50.042;8.968;2022-11-20T15:27:08;9.00;99.90
30999;DHT22;20549;50.042;8.968;2022-11-20T15:29:34;9.00;99.90
30999;DHT22;20549;50.042;8.968;2022-11-20T15:32:01;9.00;99.90
30999;DHT22;20549;50.042;8.968;2022-11-20T15:34:27;8.90;99.90
30999;DHT22;20549;50.042;8.968;2022-11-20T15:36:54;8.80;99.90
30999;DHT22;20549;50.042;8.968;2022-11-20T15:39:21;8.80;99.90
30999;DHT22;20549;50.042;8.968;2022-11-20T15:41:47;8.80;99.90
30999;DHT22;20549;50.042;8.968;2022-11-20T15:44:14;8.70;99.90
30999;DHT22;20549;50.042;8.968;2022-11-20T15:46:40;8.70;99.90
30999;DHT22;20549;50.042;8.968;2022-11-20T15:49:11;8.70;99.90
30999;DHT22;20549;50.042;8.968;2022-11-20T15:51:34;8.60;99.90
30999;DHT22;20549;50.042;8.968;2022-11-20T15:54:00;8.60;99.90
30999;DHT22;20549;50.042;8.968;2022-11-20T15:56:27;8.60;99.90
30999;DHT22;20549;50.042;8.968;2022-11-20T15:58:53;8.60;99.90
30999;DHT22;20549;50.042;8.968;2022-11-20T16:01:20;8.70;99.90
30999;DHT22;20549;50.042;8.968;2022-11-20T16:03:47;8.70;99.90
30999;DHT22;20549;50.042;8.968;2022-11-20T16:06:13;8.70;99.90
30999;DHT22;20549;50.042;8.968;2022-11-20T16:08:40;8.60;99.90
30999;DHT22;20549;50.042;8.968;2022-11-20T16:11:06;8.70;99.90
30999;DHT22;20549;50.042;8.968;2022-11-20T16:13:33;8.70;99.90
30999;DHT22;20549;50.042;8.968;2022-11-20T16:16:21;8.70;99.90
30999;DHT22;20549;50.042;8.968;2022-11-20T16:18:44;8.70;99.90
30999;DHT22;20549;50.042;8.968;2022-11-20T16:21:11;8.70;99.90
30999;DHT22;20549;50.042;8.968;2022-11-20T16:23:37;8.70;99.90
30999;DHT22;20549;50.042;8.968;2022-11-20T16:26:11;8.70;99.90
30999;DHT22;20549;50.042;8.968;2022-11-20T16:28:37;8.70;99.90
30999;DHT22;20549;50.042;8.968;2022-11-20T16:31:10;8.70;99.90
30999;DHT22;20549;50.042;8.968;2022-11-20T16:33:36;8.70;99.90
30999;DHT22;20549;50.042;8.968;2022-11-20T16:36:14;8.70;99.90
30999;DHT22;20549;50.042;8.968;2022-11-20T16:38:38;8.60;99.90
30999;DHT22;20549;50.042;8.968;2022-11-20T16:41:05;8.70;99.90
30999;DHT22;20549;50.042;8.968;2022-11-20T16:43:31;8.70;99.90
30999;DHT22;20549;50.042;8.968;2022-11-20T16:45:58;8.70;99.90
30999;DHT22;20549;50.042;8.968;2022-11-20T16:48:24;8.60;99.90
30999;DHT22;20549;50.042;8.968;2022-11-20T16:50:51;8.70;99.90
30999;DHT22;20549;50.042;8.968;2022-11-20T16:53:21;8.60;99.90
30999;DHT22;20549;50.042;8.968;2022-11-20T16:55:47;8.60;99.90
30999;DHT22;20549;50.042;8.968;2022-11-20T16:58:14;8.70;99.90
30999;DHT22;20549;50.042;8.968;2022-11-20T17:00:40;8.60;99.90
30999;DHT22;20549;50.042;8.968;2022-11-20T17:03:07;8.60;99.90
30999;DHT22;20549;50.042;8.968;2022-11-20T17:05:34;8.70;99.90
30999;DHT22;20549;50.042;8.968;2022-11-20T17:08:00;8.70;99.90